createdAt,value
2023-02-13T00:00:38.046Z,92.90
2023-02-13T00:03:05.720Z,92.70
2023-02-13T00:05:33.244Z,92.50
2023-02-13T00:08:00.717Z,92.70
2023-02-13T00:10:28.274Z,94.00
2023-02-13T00:12:55.800Z,94.30
2023-02-13T00:15:23.287Z,94.00
2023-02-13T00:17:51.020Z,93.30
2023-02-13T00:20:18.638Z,92.90
2023-02-13T00:22:46.042Z,92.70
2023-02-13T00:25:13.585Z,92.40
2023-02-13T00:27:41.045Z,92.10
2023-02-13T00:30:09.204Z,92.00
2023-02-13T00:32:36.861Z,92.00
2023-02-13T00:35:04.550Z,92.10
2023-02-13T00:37:34.151Z,92.10
2023-02-13T00:40:01.688Z,92.10
2023-02-13T00:42:29.223Z,92.20
2023-02-13T00:44:56.666Z,92.20
2023-02-13T00:47:24.121Z,92.30
2023-02-13T00:49:51.686Z,92.40
2023-02-13T00:52:19.101Z,92.50
2023-02-13T00:54:47.773Z,92.60
2023-02-13T00:57:15.164Z,92.80
2023-02-13T00:59:43.349Z,92.80
2023-02-13T01:02:10.815Z,92.80
2023-02-13T01:04:39.082Z,92.90
2023-02-13T01:07:06.538Z,93.00
2023-02-13T01:09:35.631Z,93.20
2023-02-13T01:12:03.198Z,93.20
2023-02-13T01:14:30.668Z,93.40
2023-02-13T01:16:58.273Z,93.50
2023-02-13T01:19:25.834Z,93.60
2023-02-13T01:21:53.252Z,93.70
2023-02-13T01:24:20.692Z,93.90
2023-02-13T01:26:48.203Z,94.40
2023-02-13T01:29:15.688Z,94.70
2023-02-13T01:31:43.188Z,95.60
2023-02-13T01:34:10.766Z,96.40
2023-02-13T01:36:38.287Z,96.80
2023-02-13T01:39:05.732Z,97.10
2023-02-13T01:41:33.236Z,96.70
2023-02-13T01:44:02.285Z,96.90
2023-02-13T01:46:38.831Z,97.20
2023-02-13T01:49:14.149Z,97.30
2023-02-13T01:51:43.444Z,96.90
2023-02-13T01:54:18.385Z,96.60
2023-02-13T01:56:52.024Z,96.50
2023-02-13T01:59:21.064Z,96.20
2023-02-13T02:01:49.142Z,96.40
2023-02-13T02:04:27.515Z,96.40
2023-02-13T02:07:03.257Z,96.50
2023-02-13T02:09:39.501Z,96.00
2023-02-13T02:12:28.700Z,95.80
2023-02-13T02:14:58.294Z,95.80
2023-02-13T02:17:27.370Z,95.90
2023-02-13T02:20:09.947Z,96.00
2023-02-13T02:23:05.098Z,96.00
2023-02-13T02:25:58.429Z,96.10
2023-02-13T02:28:31.844Z,96.40
2023-02-13T02:31:12.499Z,97.00
2023-02-13T02:34:00.184Z,97.60
2023-02-13T02:36:50.156Z,97.90
2023-02-13T02:39:30.984Z,97.30
2023-02-13T02:42:14.339Z,97.00
2023-02-13T02:44:58.613Z,96.80
2023-02-13T02:47:51.607Z,96.70
2023-02-13T02:50:39.613Z,96.80
2023-02-13T02:53:34.846Z,96.70
2023-02-13T02:56:20.671Z,96.70
2023-02-13T02:59:11.266Z,96.80
2023-02-13T03:01:59.376Z,97.30
2023-02-13T03:04:57.247Z,97.40
2023-02-13T03:07:24.752Z,97.20
2023-02-13T03:10:14.287Z,97.00
2023-02-13T03:13:22.790Z,97.00
2023-02-13T03:16:16.124Z,97.20
2023-02-13T03:19:06.104Z,97.10
2023-02-13T03:22:14.262Z,97.50
2023-02-13T03:25:05.526Z,97.40
2023-02-13T03:28:06.647Z,97.70
2023-02-13T03:30:56.973Z,98.10
2023-02-13T03:33:39.829Z,99.10
2023-02-13T03:36:34.992Z,99.10
2023-02-13T03:39:11.435Z,99.10
2023-02-13T03:41:56.073Z,98.60
2023-02-13T03:44:32.183Z,98.20
2023-02-13T03:47:03.056Z,98.10
2023-02-13T03:50:01.978Z,97.70
2023-02-13T03:52:58.232Z,98.60
2023-02-13T03:55:55.315Z,99.90
2023-02-13T03:58:56.449Z,99.30
2023-02-13T04:01:32.720Z,98.80
2023-02-13T04:04:14.409Z,98.70
2023-02-13T04:07:30.814Z,98.50
2023-02-13T04:10:18.376Z,98.00
2023-02-13T04:12:52.395Z,99.90
2023-02-13T04:15:37.343Z,99.90
2023-02-13T04:18:20.232Z,99.90
2023-02-13T04:20:48.167Z,99.90
2023-02-13T04:23:16.347Z,99.90
2023-02-13T04:25:48.697Z,99.90
2023-02-13T04:28:16.412Z,99.90
2023-02-13T04:30:43.986Z,99.40
2023-02-13T04:33:11.593Z,99.90
2023-02-13T04:35:39.064Z,99.90
2023-02-13T04:38:06.562Z,99.90
2023-02-13T04:40:34.078Z,99.40
2023-02-13T04:43:01.562Z,99.90
2023-02-13T04:45:28.928Z,99.90
2023-02-13T04:47:57.517Z,99.90
2023-02-13T04:50:25.994Z,99.90
2023-02-13T04:52:58.366Z,99.90
2023-02-13T04:55:27.449Z,99.90
2023-02-13T04:57:56.047Z,99.90
2023-02-13T05:00:26.909Z,99.90
2023-02-13T05:02:54.751Z,99.90
2023-02-13T05:05:22.178Z,99.90
2023-02-13T05:07:49.608Z,99.90
2023-02-13T05:10:17.197Z,99.90
2023-02-13T05:12:44.624Z,99.90
2023-02-13T05:15:12.327Z,99.90
2023-02-13T05:17:39.794Z,99.90
2023-02-13T05:20:07.723Z,99.90
2023-02-13T05:22:53.784Z,99.90
2023-02-13T05:25:21.567Z,99.90
2023-02-13T05:27:49.017Z,99.90
2023-02-13T05:30:16.469Z,99.90
2023-02-13T05:32:44.099Z,99.90
2023-02-13T05:35:11.941Z,99.90
2023-02-13T05:37:39.337Z,99.90
2023-02-13T05:40:07.488Z,99.90
2023-02-13T05:42:34.968Z,99.90
2023-02-13T05:45:02.478Z,99.90
2023-02-13T05:47:29.976Z,99.90
2023-02-13T05:49:57.517Z,99.90
2023-02-13T05:52:24.995Z,99.90
2023-02-13T05:54:52.540Z,99.90
2023-02-13T05:57:20.008Z,99.90
2023-02-13T05:59:47.521Z,99.90
2023-02-13T06:02:15.014Z,99.90
2023-02-13T06:04:42.550Z,99.90
2023-02-13T06:07:10.024Z,99.90
2023-02-13T06:09:37.537Z,99.90
2023-02-13T06:12:05.248Z,99.90
2023-02-13T06:14:32.660Z,99.90
2023-02-13T06:17:01.686Z,99.90
2023-02-13T06:19:29.158Z,99.90
2023-02-13T06:21:56.704Z,99.90
2023-02-13T06:24:24.206Z,99.90
2023-02-13T06:26:51.671Z,99.90
2023-02-13T06:29:19.182Z,99.90
2023-02-13T06:31:46.786Z,99.90
2023-02-13T06:34:14.412Z,99.90
2023-02-13T06:36:42.707Z,99.90
2023-02-13T06:39:11.240Z,99.90
2023-02-13T06:41:38.703Z,99.90
2023-02-13T06:44:07.946Z,99.90
2023-02-13T06:46:35.515Z,99.90
2023-02-13T06:49:03.127Z,99.90
2023-02-13T06:51:30.593Z,99.90
2023-02-13T06:53:58.159Z,99.90
2023-02-13T06:56:26.482Z,99.90
2023-02-13T06:58:53.956Z,99.90
2023-02-13T07:01:21.667Z,99.90
2023-02-13T07:03:49.210Z,99.90
2023-02-13T07:06:20.943Z,99.90
2023-02-13T07:08:51.357Z,99.90
2023-02-13T07:11:20.134Z,99.90
2023-02-13T07:13:47.619Z,99.90
2023-02-13T07:16:15.365Z,99.90
2023-02-13T07:18:42.790Z,99.90
2023-02-13T07:21:10.289Z,99.90
2023-02-13T07:23:37.690Z,99.90
2023-02-13T07:26:05.467Z,99.90
2023-02-13T07:28:33.118Z,99.90
2023-02-13T07:31:05.928Z,99.90
2023-02-13T07:33:34.427Z,99.90
2023-02-13T07:36:03.650Z,99.90
2023-02-13T07:38:32.388Z,99.90
2023-02-13T07:41:03.756Z,99.90
2023-02-13T07:43:31.245Z,99.90
2023-02-13T07:46:00.246Z,99.90
2023-02-13T07:48:29.155Z,99.90
2023-02-13T07:51:01.400Z,99.90
2023-02-13T07:53:29.208Z,99.90
2023-02-13T07:55:57.029Z,99.90
2023-02-13T07:58:24.684Z,99.90
2023-02-13T08:00:52.188Z,99.90
2023-02-13T08:03:19.591Z,99.90
2023-02-13T08:05:49.054Z,99.90
2023-02-13T08:08:17.345Z,99.90
2023-02-13T08:11:03.561Z,99.90
2023-02-13T08:13:31.778Z,99.90
2023-02-13T08:15:59.440Z,99.90
2023-02-13T08:18:26.902Z,99.90
2023-02-13T08:20:54.412Z,99.90
2023-02-13T08:23:21.909Z,99.90
2023-02-13T08:25:49.870Z,99.90
2023-02-13T08:28:17.522Z,99.90
2023-02-13T08:30:45.092Z,99.90
2023-02-13T08:33:12.951Z,99.20
2023-02-13T08:35:40.383Z,98.70
2023-02-13T08:38:07.932Z,99.00
2023-02-13T08:40:35.450Z,99.00
2023-02-13T08:43:04.900Z,98.50
2023-02-13T08:45:34.035Z,98.10
2023-02-13T08:48:04.098Z,97.90
2023-02-13T08:50:31.908Z,97.50
2023-02-13T08:53:00.034Z,97.60
2023-02-13T08:55:29.817Z,97.50
2023-02-13T08:58:00.993Z,97.40
2023-02-13T09:00:28.945Z,97.40
2023-02-13T09:03:02.065Z,97.20
2023-02-13T09:05:31.684Z,97.00
2023-02-13T09:08:03.801Z,96.80
2023-02-13T09:10:31.925Z,97.10
2023-02-13T09:12:59.439Z,97.10
2023-02-13T09:15:27.147Z,96.90
2023-02-13T09:17:54.587Z,97.50
2023-02-13T09:20:22.102Z,97.30
2023-02-13T09:22:49.534Z,97.20
2023-02-13T09:25:17.346Z,97.10
2023-02-13T09:27:44.839Z,97.40
2023-02-13T09:30:15.265Z,97.60
2023-02-13T09:32:42.750Z,97.30
2023-02-13T09:35:11.194Z,97.00
2023-02-13T09:37:38.664Z,97.10
2023-02-13T09:40:15.528Z,97.20
2023-02-13T09:42:45.063Z,97.00
2023-02-13T09:45:14.157Z,97.30
2023-02-13T09:47:45.557Z,97.40
2023-02-13T09:50:19.868Z,96.70
2023-02-13T09:52:49.570Z,97.10
2023-02-13T09:55:18.848Z,96.80
2023-02-13T09:58:16.392Z,96.70
2023-02-13T10:00:51.686Z,96.70
2023-02-13T10:03:29.104Z,97.20
2023-02-13T10:06:00.592Z,96.40
2023-02-13T10:08:31.486Z,96.40
2023-02-13T10:10:58.950Z,96.20
2023-02-13T10:13:31.638Z,96.30
2023-02-13T10:16:25.689Z,96.30
2023-02-13T10:18:55.537Z,95.80
2023-02-13T10:21:28.251Z,95.70
2023-02-13T10:24:12.081Z,95.60
2023-02-13T10:26:43.111Z,95.10
2023-02-13T10:29:41.546Z,95.10
2023-02-13T10:32:18.541Z,94.60
2023-02-13T10:34:47.942Z,95.10
2023-02-13T10:37:21.868Z,95.00
2023-02-13T10:39:51.492Z,94.90
2023-02-13T10:42:43.392Z,94.40
2023-02-13T10:45:21.143Z,94.30
2023-02-13T10:48:02.854Z,94.10
2023-02-13T10:50:46.946Z,94.10
2023-02-13T10:53:36.744Z,93.70
2023-02-13T10:56:04.217Z,93.70
2023-02-13T10:58:56.448Z,93.70
2023-02-13T11:01:37.627Z,93.50
2023-02-13T11:04:09.675Z,93.40
2023-02-13T11:06:42.464Z,93.70
2023-02-13T11:09:10.668Z,93.20
2023-02-13T11:11:40.683Z,93.10
2023-02-13T11:14:09.973Z,93.10
2023-02-13T11:16:51.688Z,92.60
2023-02-13T11:19:46.974Z,93.20
2023-02-13T11:22:26.868Z,93.20
2023-02-13T11:24:58.614Z,93.10
2023-02-13T11:27:39.871Z,92.70
2023-02-13T11:30:31.533Z,93.40
2023-02-13T11:33:00.337Z,93.00
2023-02-13T11:35:34.990Z,93.70
2023-02-13T11:38:16.218Z,93.40
2023-02-13T11:40:47.841Z,93.20
2023-02-13T11:43:20.064Z,92.90
2023-02-13T11:45:47.657Z,92.90
2023-02-13T11:48:23.078Z,92.40
2023-02-13T11:50:56.124Z,92.50
2023-02-13T11:53:27.377Z,92.50
2023-02-13T11:56:11.787Z,91.90
2023-02-13T11:58:40.217Z,92.20
2023-02-13T12:01:19.991Z,92.10
2023-02-13T12:04:18.150Z,92.00
2023-02-13T12:07:17.970Z,91.80
2023-02-13T12:09:48.947Z,92.00
2023-02-13T12:12:28.899Z,91.80
2023-02-13T12:14:57.303Z,91.80
2023-02-13T12:17:32.091Z,91.80
2023-02-13T12:20:00.726Z,92.00
2023-02-13T12:22:34.966Z,91.80
2023-02-13T12:25:20.194Z,91.10
2023-02-13T12:28:21.029Z,91.30
2023-02-13T12:31:10.494Z,91.40
2023-02-13T12:33:56.452Z,91.70
2023-02-13T12:36:47.178Z,91.40
2023-02-13T12:39:39.322Z,90.90
2023-02-13T12:42:22.067Z,91.50
2023-02-13T12:45:11.374Z,92.00
2023-02-13T12:47:57.351Z,91.60
2023-02-13T12:51:15.329Z,90.70
2023-02-13T12:54:07.505Z,90.70
2023-02-13T12:56:57.970Z,91.40
2023-02-13T12:59:43.932Z,91.20
2023-02-13T13:02:44.377Z,91.50
2023-02-13T13:05:43.353Z,91.50
2023-02-13T13:08:21.524Z,91.40
2023-02-13T13:11:16.758Z,91.00
2023-02-13T13:14:24.373Z,91.10
2023-02-13T13:17:06.390Z,91.30
2023-02-13T13:20:08.986Z,91.40
2023-02-13T13:22:52.569Z,91.70
2023-02-13T13:25:28.219Z,91.50
2023-02-13T13:28:12.066Z,90.90
2023-02-13T13:30:42.497Z,91.10
2023-02-13T13:33:21.823Z,91.10
2023-02-13T13:36:08.365Z,91.30
2023-02-13T13:38:57.006Z,91.00
2023-02-13T13:41:39.487Z,90.80
2023-02-13T13:44:09.578Z,90.20
2023-02-13T13:47:00.153Z,90.60
2023-02-13T13:49:50.430Z,90.90
2023-02-13T13:52:27.041Z,90.80
2023-02-13T13:54:55.811Z,90.80
2023-02-13T13:57:41.530Z,90.50
2023-02-13T14:00:09.021Z,90.40
2023-02-13T14:02:43.932Z,90.60
2023-02-13T14:05:30.874Z,90.80
2023-02-13T14:07:58.306Z,90.50
2023-02-13T14:10:59.740Z,90.70
2023-02-13T14:13:33.038Z,90.60
2023-02-13T14:16:00.930Z,90.60
2023-02-13T14:18:30.106Z,90.40
2023-02-13T14:21:02.636Z,90.50
2023-02-13T14:23:34.874Z,90.40
2023-02-13T14:26:17.276Z,90.90
2023-02-13T14:28:50.767Z,91.20
2023-02-13T14:31:24.193Z,90.70
2023-02-13T14:34:15.110Z,90.80
2023-02-13T14:36:46.023Z,91.00
2023-02-13T14:39:30.879Z,90.60
2023-02-13T14:42:23.355Z,90.90
2023-02-13T14:44:58.471Z,90.90
2023-02-13T14:47:30.385Z,90.70
2023-02-13T14:50:01.199Z,90.30
2023-02-13T14:52:43.270Z,90.30
2023-02-13T14:55:17.811Z,90.80
2023-02-13T14:57:53.110Z,90.50
2023-02-13T15:00:35.198Z,90.60
2023-02-13T15:03:24.577Z,90.60
2023-02-13T15:05:56.417Z,90.60
2023-02-13T15:08:28.903Z,91.00
2023-02-13T15:10:57.619Z,90.70
2023-02-13T15:13:31.462Z,90.70
2023-02-13T15:16:06.985Z,90.80
2023-02-13T15:18:55.408Z,91.00
2023-02-13T15:21:33.043Z,91.00
2023-02-13T15:24:00.496Z,91.30
2023-02-13T15:26:29.228Z,91.00
2023-02-13T15:29:09.137Z,90.90
2023-02-13T15:31:39.036Z,91.00
2023-02-13T15:34:25.510Z,91.20
2023-02-13T15:36:53.907Z,91.40
2023-02-13T15:39:29.071Z,91.50
2023-02-13T15:41:59.719Z,91.50
2023-02-13T15:44:36.812Z,91.40
2023-02-13T15:47:31.580Z,91.40
2023-02-13T15:49:59.415Z,91.60
2023-02-13T15:52:34.529Z,91.70
2023-02-13T15:55:02.127Z,91.70
2023-02-13T15:57:30.062Z,91.90
2023-02-13T16:00:00.340Z,91.80
2023-02-13T16:02:50.423Z,91.90
2023-02-13T16:05:29.429Z,92.20
2023-02-13T16:08:29.788Z,92.20
2023-02-13T16:11:27.161Z,92.60
2023-02-13T16:14:00.557Z,92.50
2023-02-13T16:16:30.704Z,92.60
2023-02-13T16:18:58.404Z,92.90
2023-02-13T16:21:29.288Z,93.10
2023-02-13T16:24:07.113Z,93.50
2023-02-13T16:26:42.527Z,93.80
2023-02-13T16:29:16.068Z,94.00
2023-02-13T16:31:43.698Z,95.20
2023-02-13T16:34:29.515Z,95.10
2023-02-13T16:36:57.193Z,95.30
2023-02-13T16:39:30.513Z,95.90
2023-02-13T16:42:01.599Z,96.20
2023-02-13T16:44:33.484Z,96.70
2023-02-13T16:47:03.886Z,97.20
2023-02-13T16:49:36.199Z,97.60
2023-02-13T16:52:12.506Z,97.80
2023-02-13T16:55:00.469Z,98.30
2023-02-13T16:57:33.853Z,98.80
2023-02-13T17:00:28.189Z,99.10
2023-02-13T17:02:55.596Z,99.60
2023-02-13T17:05:27.846Z,99.90
2023-02-13T17:08:01.271Z,99.90
2023-02-13T17:10:35.822Z,99.90
2023-02-13T17:13:11.579Z,99.90
2023-02-13T17:15:44.066Z,99.90
2023-02-13T17:18:11.553Z,99.90
2023-02-13T17:20:43.138Z,99.90
2023-02-13T17:23:21.155Z,99.90
2023-02-13T17:25:49.773Z,99.90
2023-02-13T17:28:21.283Z,99.90
2023-02-13T17:30:51.452Z,99.90
2023-02-13T17:33:22.981Z,99.90
2023-02-13T17:35:51.501Z,99.90
2023-02-13T17:38:19.038Z,99.90
2023-02-13T17:40:46.892Z,99.90
2023-02-13T17:43:17.145Z,99.90
2023-02-13T17:45:46.155Z,99.90
2023-02-13T17:48:13.654Z,99.90
2023-02-13T17:50:41.355Z,99.90
2023-02-13T17:53:23.978Z,99.90
2023-02-13T17:55:52.513Z,99.90
2023-02-13T17:58:20.073Z,99.90
2023-02-13T18:00:47.671Z,99.90
2023-02-13T18:03:15.293Z,99.90
2023-02-13T18:05:42.798Z,99.90
2023-02-13T18:08:10.389Z,99.90
2023-02-13T18:10:39.550Z,99.90
2023-02-13T18:13:07.301Z,99.90
2023-02-13T18:15:39.271Z,99.90
2023-02-13T18:18:07.067Z,99.90
2023-02-13T18:20:34.709Z,99.90
2023-02-13T18:23:02.488Z,99.90
2023-02-13T18:25:30.006Z,99.90
2023-02-13T18:27:57.461Z,99.90
2023-02-13T18:30:25.245Z,99.90
2023-02-13T18:32:54.749Z,99.90
2023-02-13T18:35:23.419Z,99.90
2023-02-13T18:37:51.610Z,99.90
2023-02-13T18:40:19.617Z,99.90
2023-02-13T18:42:47.090Z,99.90
2023-02-13T18:45:14.541Z,99.90
2023-02-13T18:47:42.165Z,99.90
2023-02-13T18:50:10.265Z,99.90
2023-02-13T18:52:37.792Z,99.90
2023-02-13T18:55:07.120Z,99.90
2023-02-13T18:57:34.986Z,99.90
2023-02-13T19:00:04.585Z,99.90
2023-02-13T19:02:33.436Z,99.90
2023-02-13T19:05:01.419Z,99.90
2023-02-13T19:07:28.958Z,99.90
2023-02-13T19:09:56.592Z,99.90
2023-02-13T19:12:24.264Z,99.90
2023-02-13T19:14:51.774Z,99.90
2023-02-13T19:17:19.219Z,99.90
2023-02-13T19:19:48.729Z,99.90
2023-02-13T19:22:16.348Z,99.90
2023-02-13T19:24:44.139Z,99.90
2023-02-13T19:27:11.663Z,99.90
2023-02-13T19:29:39.221Z,99.90
2023-02-13T19:32:06.749Z,99.90
2023-02-13T19:34:34.671Z,99.90
2023-02-13T19:37:02.151Z,99.90
2023-02-13T19:39:29.546Z,99.90
2023-02-13T19:41:57.197Z,99.90
2023-02-13T19:44:24.759Z,99.90
2023-02-13T19:46:52.252Z,99.90
2023-02-13T19:49:22.347Z,99.90
2023-02-13T19:51:50.336Z,99.90
2023-02-13T19:54:17.794Z,99.90
2023-02-13T19:56:45.380Z,99.90
2023-02-13T19:59:13.580Z,99.90
2023-02-13T20:01:42.916Z,99.90
2023-02-13T20:04:11.856Z,99.90
2023-02-13T20:06:40.037Z,99.90
2023-02-13T20:09:11.378Z,99.90
2023-02-13T20:11:41.378Z,99.90
2023-02-13T20:14:14.609Z,99.90
2023-02-13T20:16:43.011Z,99.90
2023-02-13T20:19:12.209Z,99.90
2023-02-13T20:21:41.529Z,99.90
2023-02-13T20:24:10.621Z,99.90
2023-02-13T20:26:39.007Z,99.90
2023-02-13T20:29:06.991Z,99.90
2023-02-13T20:31:34.934Z,99.90
2023-02-13T20:34:05.459Z,99.90
2023-02-13T20:36:33.384Z,99.90
2023-02-13T20:39:03.039Z,99.90
2023-02-13T20:41:33.503Z,99.90
2023-02-13T20:44:12.652Z,99.90
2023-02-13T20:46:41.453Z,99.90
2023-02-13T20:49:11.741Z,99.90
2023-02-13T20:51:39.265Z,99.90
2023-02-13T20:54:06.807Z,99.90
2023-02-13T20:56:34.326Z,99.90
2023-02-13T20:59:03.260Z,99.90
2023-02-13T21:01:40.367Z,99.90
2023-02-13T21:04:10.184Z,99.90
2023-02-13T21:06:38.392Z,99.90
2023-02-13T21:09:08.540Z,99.90
2023-02-13T21:11:37.769Z,99.90
2023-02-13T21:14:05.932Z,99.90
2023-02-13T21:16:37.444Z,99.90
2023-02-13T21:19:09.560Z,99.90
2023-02-13T21:21:37.389Z,99.90
2023-02-13T21:24:08.545Z,99.90
2023-02-13T21:26:36.524Z,99.90
2023-02-13T21:29:04.629Z,99.90
2023-02-13T21:31:38.085Z,99.90
2023-02-13T21:34:08.549Z,99.90
2023-02-13T21:36:39.062Z,99.90
2023-02-13T21:39:08.701Z,99.90
2023-02-13T21:41:39.440Z,99.90
2023-02-13T21:44:07.056Z,99.90
2023-02-13T21:46:34.681Z,99.90
2023-02-13T21:49:04.584Z,99.90
2023-02-13T21:51:35.532Z,99.90
2023-02-13T21:54:04.025Z,99.90
2023-02-13T21:56:37.770Z,99.90
2023-02-13T21:59:06.075Z,99.90
2023-02-13T22:01:50.114Z,99.90
2023-02-13T22:04:18.289Z,99.90
2023-02-13T22:06:49.379Z,99.90
2023-02-13T22:09:17.979Z,99.90
2023-02-13T22:11:45.704Z,99.90
2023-02-13T22:14:17.013Z,99.90
2023-02-13T22:16:45.186Z,99.90
2023-02-13T22:19:14.940Z,99.90
2023-02-13T22:21:43.259Z,99.90
2023-02-13T22:24:11.638Z,99.90
2023-02-13T22:26:41.647Z,99.90
2023-02-13T22:29:11.576Z,99.90
2023-02-13T22:31:39.212Z,99.90
2023-02-13T22:34:07.192Z,99.90
2023-02-13T22:36:40.199Z,99.90
2023-02-13T22:39:09.750Z,99.90
2023-02-13T22:41:37.778Z,99.90
2023-02-13T22:44:05.697Z,99.90
2023-02-13T22:46:34.267Z,99.90
2023-02-13T22:49:02.181Z,99.90
2023-02-13T22:51:33.089Z,99.90
2023-02-13T22:54:00.712Z,99.90
2023-02-13T22:56:30.293Z,99.90
2023-02-13T22:58:58.336Z,99.90
2023-02-13T23:01:28.401Z,99.90
2023-02-13T23:03:56.372Z,99.90
2023-02-13T23:06:24.322Z,99.90
2023-02-13T23:08:54.850Z,99.90
2023-02-13T23:11:44.211Z,99.90
2023-02-13T23:14:12.501Z,99.90
2023-02-13T23:16:59.929Z,99.90
2023-02-13T23:19:27.812Z,99.90
2023-02-13T23:21:55.710Z,99.90
2023-02-13T23:24:23.526Z,99.90
2023-02-13T23:26:51.025Z,99.90
2023-02-13T23:29:18.557Z,99.90
2023-02-13T23:31:46.061Z,99.90
2023-02-13T23:34:13.587Z,99.90
2023-02-13T23:36:41.020Z,99.90
2023-02-13T23:39:08.509Z,99.90
2023-02-13T23:41:36.028Z,99.90
2023-02-13T23:44:03.519Z,99.90
2023-02-13T23:46:31.376Z,99.90
2023-02-13T23:48:58.887Z,99.90
2023-02-13T23:51:26.413Z,99.90
2023-02-13T23:53:56.265Z,99.90
2023-02-13T23:56:25.123Z,99.90
2023-02-13T23:58:52.873Z,99.90
